createdAt,value
2019-03-23T00:01:58.075Z,11.30
2019-03-23T00:04:26.655Z,11.30
2019-03-23T00:06:55.184Z,11.20
2019-03-23T00:09:23.622Z,11.10
2019-03-23T00:11:52.230Z,11.10
2019-03-23T00:14:20.654Z,11.00
2019-03-23T00:16:49.126Z,11.00
2019-03-23T00:19:17.609Z,10.90
2019-03-23T00:21:46.071Z,10.90
2019-03-23T00:24:14.625Z,10.80
2019-03-23T00:26:43.048Z,10.80
2019-03-23T00:29:11.634Z,10.80
2019-03-23T00:31:40.164Z,10.70
2019-03-23T00:34:08.836Z,10.70
2019-03-23T00:36:41.388Z,10.60
2019-03-23T00:39:07.609Z,10.60
2019-03-23T00:41:36.108Z,10.50
2019-03-23T00:44:04.721Z,10.50
2019-03-23T00:46:33.155Z,10.40
2019-03-23T00:49:01.636Z,10.40
2019-03-23T00:51:30.121Z,10.30
2019-03-23T00:53:58.627Z,10.20
2019-03-23T00:56:27.214Z,10.30
2019-03-23T00:58:55.714Z,10.30
2019-03-23T01:01:24.351Z,10.30
2019-03-23T01:03:52.842Z,10.20
2019-03-23T01:06:21.276Z,10.20
2019-03-23T01:08:49.719Z,10.20
2019-03-23T01:11:18.203Z,10.30
2019-03-23T01:13:46.629Z,10.30
2019-03-23T01:16:15.923Z,10.30
2019-03-23T01:18:44.429Z,10.30
2019-03-23T01:21:12.978Z,10.20
2019-03-23T01:23:41.415Z,10.20
2019-03-23T01:26:10.429Z,10.10
2019-03-23T01:28:38.995Z,10.10
2019-03-23T01:31:07.605Z,10.00
2019-03-23T01:33:36.159Z,10.00
2019-03-23T01:36:05.035Z,9.90
2019-03-23T01:38:33.480Z,9.80
2019-03-23T01:41:02.235Z,9.70
2019-03-23T01:43:30.820Z,9.60
2019-03-23T01:45:59.382Z,9.50
2019-03-23T01:48:27.868Z,9.50
2019-03-23T01:50:56.615Z,9.40
2019-03-23T01:53:25.057Z,9.30
2019-03-23T01:55:53.616Z,9.10
2019-03-23T01:58:22.206Z,9.00
2019-03-23T02:00:50.747Z,8.80
2019-03-23T02:03:19.185Z,8.50
2019-03-23T02:05:47.619Z,8.30
2019-03-23T02:08:16.117Z,8.20
2019-03-23T02:10:44.617Z,8.10
2019-03-23T02:13:13.155Z,8.00
2019-03-23T02:15:41.605Z,8.00
2019-03-23T02:18:10.055Z,8.10
2019-03-23T02:20:38.592Z,8.00
2019-03-23T02:23:07.045Z,8.00
2019-03-23T02:25:35.499Z,8.00
2019-03-23T02:28:04.503Z,8.00
2019-03-23T02:30:33.049Z,8.00
2019-03-23T02:33:01.542Z,8.00
2019-03-23T02:35:30.126Z,8.00
2019-03-23T02:37:59.143Z,8.00
2019-03-23T02:40:27.648Z,8.10
2019-03-23T02:42:56.125Z,8.10
2019-03-23T02:45:24.629Z,8.10
2019-03-23T02:47:53.089Z,8.00
2019-03-23T02:50:21.563Z,8.00
2019-03-23T02:52:50.022Z,8.00
2019-03-23T02:55:18.442Z,7.90
2019-03-23T02:57:47.023Z,7.90
2019-03-23T03:00:18.078Z,7.90
2019-03-23T03:02:46.624Z,7.90
2019-03-23T03:05:15.211Z,7.90
2019-03-23T03:07:44.127Z,7.90
2019-03-23T03:10:15.960Z,8.00
2019-03-23T03:12:44.475Z,8.00
2019-03-23T03:15:13.043Z,8.00
2019-03-23T03:17:41.641Z,8.00
2019-03-23T03:20:10.575Z,7.90
2019-03-23T03:22:39.066Z,7.90
2019-03-23T03:25:08.706Z,7.90
2019-03-23T03:27:37.328Z,7.90
2019-03-23T03:30:09.069Z,7.80
2019-03-23T03:32:37.743Z,7.80
2019-03-23T03:35:07.653Z,7.80
2019-03-23T03:37:36.474Z,7.90
2019-03-23T03:40:09.181Z,7.90
2019-03-23T03:42:37.754Z,7.80
2019-03-23T03:45:08.866Z,7.80
2019-03-23T03:47:40.822Z,7.90
2019-03-23T03:50:08.975Z,7.90
2019-03-23T03:52:37.881Z,7.90
2019-03-23T03:55:07.093Z,7.90
2019-03-23T03:57:36.344Z,8.00
2019-03-23T04:00:07.213Z,8.00
2019-03-23T04:02:35.732Z,8.00
2019-03-23T04:05:04.857Z,8.00
2019-03-23T04:07:33.322Z,8.00
2019-03-23T04:10:02.062Z,8.00
2019-03-23T04:12:30.756Z,8.10
2019-03-23T04:14:59.184Z,8.10
2019-03-23T04:17:27.677Z,8.10
2019-03-23T04:19:59.728Z,8.10
2019-03-23T04:22:28.188Z,8.10
2019-03-23T04:24:56.598Z,8.00
2019-03-23T04:27:25.050Z,8.10
2019-03-23T04:29:53.518Z,8.10
2019-03-23T04:32:22.526Z,8.20
2019-03-23T04:34:50.988Z,8.30
2019-03-23T04:37:19.447Z,8.40
2019-03-23T04:39:47.907Z,8.40
2019-03-23T04:42:16.418Z,8.40
2019-03-23T04:44:44.853Z,8.40
2019-03-23T04:47:13.427Z,8.40
2019-03-23T04:49:41.916Z,8.40
2019-03-23T04:52:10.498Z,8.50
2019-03-23T04:54:39.062Z,8.50
2019-03-23T04:57:07.544Z,8.50
2019-03-23T04:59:35.987Z,8.50
2019-03-23T05:02:04.652Z,8.50
2019-03-23T05:04:33.133Z,8.50
2019-03-23T05:07:01.651Z,8.50
2019-03-23T05:09:30.172Z,8.60
2019-03-23T05:11:58.977Z,8.60
2019-03-23T05:14:27.442Z,8.60
2019-03-23T05:16:55.924Z,8.70
2019-03-23T05:19:24.474Z,8.70
2019-03-23T05:21:52.900Z,8.70
2019-03-23T05:24:21.768Z,8.70
2019-03-23T05:26:50.676Z,8.70
2019-03-23T05:29:19.203Z,8.80
2019-03-23T05:31:48.335Z,8.80
2019-03-23T05:34:18.022Z,8.80
2019-03-23T05:36:46.568Z,8.80
2019-03-23T05:39:15.008Z,8.80
2019-03-23T05:41:43.497Z,8.70
2019-03-23T05:44:11.995Z,8.80
2019-03-23T05:46:40.460Z,8.80
2019-03-23T05:49:08.935Z,8.90
2019-03-23T05:51:37.355Z,8.90
2019-03-23T05:54:05.874Z,8.80
2019-03-23T05:56:34.483Z,8.80
2019-03-23T05:59:03.040Z,8.80
2019-03-23T06:01:31.534Z,8.70
2019-03-23T06:03:59.956Z,8.80
2019-03-23T06:06:28.468Z,8.80
2019-03-23T06:08:56.997Z,8.80
2019-03-23T06:11:25.510Z,8.80
2019-03-23T06:13:53.975Z,8.90
2019-03-23T06:16:22.478Z,8.90
2019-03-23T06:18:51.061Z,8.90
2019-03-23T06:21:19.733Z,8.90
2019-03-23T06:23:48.205Z,8.90
2019-03-23T06:26:16.668Z,8.90
2019-03-23T06:28:45.376Z,8.90
2019-03-23T06:31:13.854Z,8.90
2019-03-23T06:33:42.353Z,8.80
2019-03-23T06:36:11.198Z,8.80
2019-03-23T06:38:39.830Z,8.80
2019-03-23T06:41:08.252Z,8.80
2019-03-23T06:43:36.670Z,8.80
2019-03-23T06:46:05.271Z,8.80
2019-03-23T06:48:33.775Z,8.80
2019-03-23T06:51:03.412Z,8.90
2019-03-23T06:53:32.101Z,8.90
2019-03-23T06:56:00.690Z,8.90
2019-03-23T06:58:29.089Z,9.00
2019-03-23T07:00:57.535Z,9.00
2019-03-23T07:03:26.429Z,9.00
2019-03-23T07:05:54.842Z,9.00
2019-03-23T07:08:31.816Z,9.00
2019-03-23T07:10:54.202Z,9.00
2019-03-23T07:13:22.671Z,9.10
2019-03-23T07:15:51.191Z,9.10
2019-03-23T07:18:19.719Z,9.30
2019-03-23T07:20:48.162Z,9.60
2019-03-23T07:23:16.578Z,9.50
2019-03-23T07:25:45.725Z,9.70
2019-03-23T07:28:14.774Z,9.80
2019-03-23T07:30:43.216Z,9.80
2019-03-23T07:33:11.729Z,9.90
2019-03-23T07:35:40.183Z,9.90
2019-03-23T07:38:08.982Z,9.90
2019-03-23T07:40:37.688Z,9.70
2019-03-23T07:43:07.102Z,9.70
2019-03-23T07:45:35.534Z,9.70
2019-03-23T07:48:03.962Z,9.80
2019-03-23T07:50:32.441Z,9.90
2019-03-23T07:53:00.973Z,10.10
2019-03-23T07:55:29.534Z,10.20
2019-03-23T07:57:57.951Z,10.40
2019-03-23T08:00:26.670Z,10.50
2019-03-23T08:02:55.077Z,10.50
2019-03-23T08:05:24.071Z,10.50
2019-03-23T08:07:52.786Z,10.40
2019-03-23T08:10:29.972Z,10.40
2019-03-23T08:12:58.776Z,10.40
2019-03-23T08:15:27.367Z,10.40
2019-03-23T08:17:56.159Z,10.40
2019-03-23T08:20:25.796Z,10.40
2019-03-23T08:22:54.717Z,10.40
2019-03-23T08:25:23.225Z,10.40
2019-03-23T08:27:52.165Z,10.40
2019-03-23T08:30:20.594Z,10.50
2019-03-23T08:32:51.763Z,10.50
2019-03-23T08:35:20.526Z,10.60
2019-03-23T08:37:48.930Z,10.60
2019-03-23T08:40:17.735Z,10.60
2019-03-23T08:42:46.279Z,10.70
2019-03-23T08:45:14.780Z,10.70
2019-03-23T08:47:43.552Z,10.80
2019-03-23T08:50:12.429Z,11.00
2019-03-23T08:52:40.902Z,10.90
2019-03-23T08:55:09.325Z,10.90
2019-03-23T08:57:37.803Z,10.90
2019-03-23T09:00:07.633Z,10.90
2019-03-23T09:02:36.058Z,10.90
2019-03-23T09:05:05.953Z,11.00
2019-03-23T09:07:34.445Z,11.10
2019-03-23T09:10:04.306Z,11.20
2019-03-23T09:12:32.758Z,11.30
2019-03-23T09:15:01.293Z,11.30
2019-03-23T09:17:30.144Z,11.40
2019-03-23T09:19:58.633Z,11.30
2019-03-23T09:22:27.067Z,11.30
2019-03-23T09:24:57.126Z,11.20
2019-03-23T09:27:25.901Z,11.10
2019-03-23T09:29:54.352Z,10.90
2019-03-23T09:32:22.774Z,10.90
2019-03-23T09:34:51.266Z,10.80
2019-03-23T09:37:19.678Z,10.80
2019-03-23T09:39:48.289Z,10.70
2019-03-23T09:42:17.458Z,10.80
2019-03-23T09:44:45.944Z,10.80
2019-03-23T09:47:14.397Z,10.80
2019-03-23T09:49:42.821Z,10.80
2019-03-23T09:52:11.314Z,10.80
2019-03-23T09:54:39.738Z,10.90
2019-03-23T09:57:08.175Z,10.70
2019-03-23T09:59:36.651Z,10.70
2019-03-23T10:02:05.154Z,10.70
2019-03-23T10:04:33.680Z,10.70
2019-03-23T10:07:02.131Z,10.80
2019-03-23T10:09:30.601Z,10.80
2019-03-23T10:11:59.305Z,10.80
2019-03-23T10:14:28.051Z,10.80
2019-03-23T10:16:56.529Z,10.80
2019-03-23T10:19:25.095Z,10.90
2019-03-23T10:21:53.731Z,10.80
2019-03-23T10:24:22.154Z,10.80
2019-03-23T10:26:52.255Z,10.80
2019-03-23T10:29:21.201Z,10.70
2019-03-23T10:31:49.639Z,10.70
2019-03-23T10:34:18.067Z,10.80
2019-03-23T10:36:46.523Z,10.90
2019-03-23T10:39:14.944Z,10.90
2019-03-23T10:41:43.457Z,10.90
2019-03-23T10:44:12.168Z,11.10
2019-03-23T10:46:40.761Z,11.30
2019-03-23T10:49:09.365Z,11.80
2019-03-23T10:51:37.871Z,12.10
2019-03-23T10:54:06.304Z,12.30
2019-03-23T10:56:36.351Z,12.30
2019-03-23T10:59:04.885Z,12.50
2019-03-23T11:01:33.358Z,12.50
2019-03-23T11:04:01.765Z,12.30
2019-03-23T11:06:30.204Z,12.20
2019-03-23T11:08:58.642Z,12.20
2019-03-23T11:11:27.066Z,12.10
2019-03-23T11:13:55.486Z,12.10
2019-03-23T11:16:25.079Z,12.40
2019-03-23T11:18:53.522Z,12.80
2019-03-23T11:21:21.942Z,13.30
2019-03-23T11:23:50.385Z,13.70
2019-03-23T11:26:18.875Z,14.20
2019-03-23T11:28:47.304Z,14.20
2019-03-23T11:31:15.733Z,14.00
2019-03-23T11:33:44.224Z,14.00
2019-03-23T11:36:12.718Z,14.30
2019-03-23T11:38:41.131Z,14.20
2019-03-23T11:41:09.587Z,14.40
2019-03-23T11:43:38.014Z,14.40
2019-03-23T11:46:06.647Z,14.50
2019-03-23T11:48:35.067Z,14.90
2019-03-23T11:51:03.561Z,15.20
2019-03-23T11:53:32.200Z,15.30
2019-03-23T11:56:00.756Z,14.70
2019-03-23T11:58:29.203Z,14.70
2019-03-23T12:00:57.729Z,15.10
2019-03-23T12:03:26.325Z,15.30
2019-03-23T12:05:54.987Z,15.30
2019-03-23T12:08:23.582Z,15.10
2019-03-23T12:11:02.314Z,15.60
2019-03-23T12:13:22.330Z,16.00
2019-03-23T12:15:50.842Z,16.30
2019-03-23T12:18:19.755Z,16.50
2019-03-23T12:20:51.977Z,16.30
2019-03-23T12:23:20.490Z,15.70
2019-03-23T12:25:48.996Z,15.00
2019-03-23T12:28:17.469Z,15.20
2019-03-23T12:30:45.912Z,15.40
2019-03-23T12:33:14.500Z,15.20
2019-03-23T12:35:43.090Z,14.60
2019-03-23T12:38:11.516Z,14.50
2019-03-23T12:40:40.113Z,14.50
2019-03-23T12:43:08.675Z,14.30
2019-03-23T12:45:38.827Z,14.50
2019-03-23T12:48:07.811Z,14.60
2019-03-23T12:50:36.272Z,14.60
2019-03-23T12:53:04.975Z,14.50
2019-03-23T12:55:33.394Z,14.20
2019-03-23T12:58:01.892Z,13.80
2019-03-23T13:00:30.418Z,13.80
2019-03-23T13:02:58.864Z,13.80
2019-03-23T13:05:27.351Z,13.90
2019-03-23T13:07:55.879Z,14.00
2019-03-23T13:10:24.304Z,14.10
2019-03-23T13:12:52.841Z,14.10
2019-03-23T13:15:21.269Z,14.10
2019-03-23T13:17:49.709Z,14.10
2019-03-23T13:20:18.354Z,14.10
2019-03-23T13:22:47.261Z,14.10
2019-03-23T13:25:15.890Z,13.90
2019-03-23T13:27:44.464Z,14.00
2019-03-23T13:30:16.158Z,14.10
2019-03-23T13:32:44.838Z,14.20
2019-03-23T13:35:13.555Z,14.20
2019-03-23T13:37:42.164Z,13.90
2019-03-23T13:40:12.188Z,13.60
2019-03-23T13:42:40.664Z,13.60
2019-03-23T13:45:10.753Z,13.70
2019-03-23T13:47:41.211Z,13.90
2019-03-23T13:50:13.628Z,14.10
2019-03-23T13:52:42.191Z,14.00
2019-03-23T13:55:13.751Z,13.80
2019-03-23T13:57:42.248Z,13.60
2019-03-23T14:00:10.995Z,13.70
2019-03-23T14:02:39.441Z,13.90
2019-03-23T14:05:15.639Z,14.00
2019-03-23T14:07:38.317Z,14.20
2019-03-23T14:10:07.143Z,14.20
2019-03-23T14:12:35.699Z,14.10
2019-03-23T14:15:06.194Z,14.10
2019-03-23T14:17:36.172Z,14.10
2019-03-23T14:20:06.681Z,14.20
2019-03-23T14:22:35.139Z,14.10
2019-03-23T14:25:05.897Z,14.00
2019-03-23T14:27:34.487Z,14.10
2019-03-23T14:30:03.746Z,14.20
2019-03-23T14:32:32.386Z,14.10
2019-03-23T14:35:01.249Z,14.20
2019-03-23T14:37:30.110Z,14.20
2019-03-23T14:39:58.717Z,14.30
2019-03-23T14:42:27.307Z,14.20
2019-03-23T14:44:55.896Z,14.00
2019-03-23T14:47:24.470Z,13.80
2019-03-23T14:49:53.062Z,13.70
2019-03-23T14:52:21.547Z,13.70
2019-03-23T14:54:50.001Z,13.70
2019-03-23T14:57:18.484Z,13.70
2019-03-23T14:59:47.172Z,13.60
2019-03-23T15:02:15.766Z,13.60
2019-03-23T15:04:44.355Z,13.60
2019-03-23T15:07:12.919Z,13.50
2019-03-23T15:09:41.517Z,13.50
2019-03-23T15:12:15.085Z,13.40
2019-03-23T15:14:40.482Z,13.30
2019-03-23T15:17:10.581Z,13.20
2019-03-23T15:19:39.273Z,13.20
2019-03-23T15:22:07.940Z,13.20
2019-03-23T15:24:36.503Z,13.20
2019-03-23T15:27:05.278Z,13.30
2019-03-23T15:29:33.839Z,13.20
2019-03-23T15:32:02.450Z,13.30
2019-03-23T15:34:31.094Z,13.30
2019-03-23T15:36:59.601Z,13.30
2019-03-23T15:39:28.305Z,13.10
2019-03-23T15:41:56.819Z,13.10
2019-03-23T15:44:28.708Z,13.20
2019-03-23T15:46:55.534Z,13.20
2019-03-23T15:49:23.964Z,13.30
2019-03-23T15:51:52.416Z,13.30
2019-03-23T15:54:20.944Z,13.30
2019-03-23T15:56:49.529Z,13.20
2019-03-23T15:59:18.114Z,13.10
2019-03-23T16:01:46.555Z,13.20
2019-03-23T16:04:14.987Z,13.10
2019-03-23T16:06:43.443Z,13.10
2019-03-23T16:09:12.163Z,13.00
2019-03-23T16:11:40.787Z,12.90
2019-03-23T16:14:09.348Z,12.90
2019-03-23T16:16:37.830Z,12.90
2019-03-23T16:19:06.399Z,12.90
2019-03-23T16:21:34.832Z,12.90
2019-03-23T16:24:03.365Z,13.00
2019-03-23T16:26:31.834Z,13.00
2019-03-23T16:29:00.479Z,13.00
2019-03-23T16:31:28.975Z,13.00
2019-03-23T16:33:57.451Z,13.00
2019-03-23T16:36:25.977Z,13.00
2019-03-23T16:38:54.504Z,13.10
2019-03-23T16:41:23.056Z,13.20
2019-03-23T16:43:51.812Z,13.00
2019-03-23T16:46:20.320Z,13.00
2019-03-23T16:48:49.238Z,13.00
2019-03-23T16:51:17.833Z,13.00
2019-03-23T16:53:46.489Z,13.00
2019-03-23T16:56:14.995Z,13.00
2019-03-23T16:58:43.531Z,13.00
2019-03-23T17:01:12.051Z,12.90
2019-03-23T17:03:40.670Z,13.00
2019-03-23T17:06:09.129Z,13.00
2019-03-23T17:08:37.572Z,13.00
2019-03-23T17:11:06.111Z,13.10
2019-03-23T17:13:34.851Z,13.00
2019-03-23T17:16:03.409Z,12.90
2019-03-23T17:18:31.995Z,12.80
2019-03-23T17:21:00.534Z,12.70
2019-03-23T17:23:29.009Z,12.80
2019-03-23T17:26:00.511Z,12.70
2019-03-23T17:28:29.168Z,12.70
2019-03-23T17:30:57.728Z,12.80
2019-03-23T17:33:26.788Z,12.80
2019-03-23T17:35:55.329Z,12.80
2019-03-23T17:38:23.845Z,12.80
2019-03-23T17:40:52.429Z,12.60
2019-03-23T17:43:21.570Z,12.70
2019-03-23T17:45:50.103Z,12.70
2019-03-23T17:48:20.065Z,12.70
2019-03-23T17:50:48.844Z,12.60
2019-03-23T17:53:17.360Z,12.60
2019-03-23T17:55:46.634Z,12.60
2019-03-23T17:58:15.155Z,12.70
2019-03-23T18:00:43.891Z,12.60
2019-03-23T18:03:12.834Z,12.70
2019-03-23T18:05:41.380Z,12.80
2019-03-23T18:08:09.898Z,12.80
2019-03-23T18:10:38.648Z,12.70
2019-03-23T18:13:16.202Z,12.70
2019-03-23T18:15:37.487Z,12.80
2019-03-23T18:18:06.098Z,12.80
2019-03-23T18:20:34.650Z,12.80
2019-03-23T18:23:03.267Z,12.70
2019-03-23T18:25:31.920Z,12.70
2019-03-23T18:28:00.740Z,12.60
2019-03-23T18:30:34.379Z,12.50
2019-03-23T18:33:05.110Z,12.40
2019-03-23T18:35:34.337Z,12.40
2019-03-23T18:38:03.292Z,12.30
2019-03-23T18:40:33.364Z,12.20
2019-03-23T18:43:02.021Z,12.10
2019-03-23T18:45:30.848Z,12.10
2019-03-23T18:47:59.511Z,12.00
2019-03-23T18:50:28.137Z,11.90
2019-03-23T18:52:56.804Z,11.90
2019-03-23T18:55:25.328Z,11.80
2019-03-23T18:57:53.776Z,11.80
2019-03-23T19:00:34.162Z,11.70
2019-03-23T19:03:03.135Z,11.70
2019-03-23T19:05:31.875Z,11.70
2019-03-23T19:08:00.542Z,11.60
2019-03-23T19:10:29.109Z,11.60
2019-03-23T19:12:57.889Z,11.50
2019-03-23T19:15:26.476Z,11.40
2019-03-23T19:17:55.050Z,11.40
2019-03-23T19:20:23.523Z,11.40
2019-03-23T19:22:52.056Z,11.40
2019-03-23T19:25:21.132Z,11.30
2019-03-23T19:27:49.698Z,11.20
2019-03-23T19:30:19.373Z,11.30
2019-03-23T19:32:47.970Z,11.30
2019-03-23T19:35:17.141Z,11.30
2019-03-23T19:37:45.710Z,11.30
2019-03-23T19:40:14.313Z,11.30
2019-03-23T19:42:42.939Z,11.20
2019-03-23T19:45:11.999Z,11.10
2019-03-23T19:47:40.540Z,11.10
2019-03-23T19:50:09.669Z,11.10
2019-03-23T19:52:38.206Z,11.10
2019-03-23T19:55:10.398Z,11.10
2019-03-23T19:57:39.052Z,11.10
2019-03-23T20:00:09.767Z,11.10
2019-03-23T20:02:38.427Z,11.00
2019-03-23T20:05:07.440Z,11.00
2019-03-23T20:07:36.061Z,11.00
2019-03-23T20:10:07.031Z,11.00
2019-03-23T20:12:35.722Z,11.00
2019-03-23T20:15:08.266Z,11.00
2019-03-23T20:17:36.881Z,10.90
2019-03-23T20:20:07.935Z,10.90
2019-03-23T20:22:36.531Z,10.90
2019-03-23T20:25:08.681Z,10.90
2019-03-23T20:27:37.116Z,10.90
2019-03-23T20:30:07.786Z,11.00
2019-03-23T20:32:36.302Z,11.10
2019-03-23T20:35:07.457Z,11.10
2019-03-23T20:37:36.186Z,11.10
2019-03-23T20:40:08.417Z,11.00
2019-03-23T20:42:37.069Z,11.00
2019-03-23T20:45:06.935Z,11.00
2019-03-23T20:47:35.558Z,11.00
2019-03-23T20:50:05.462Z,10.90
2019-03-23T20:52:34.012Z,10.90
2019-03-23T21:15:45.835Z,10.90
2019-03-23T21:18:16.137Z,10.90
2019-03-23T21:20:47.699Z,10.90
2019-03-23T21:23:16.222Z,10.90
2019-03-23T21:25:44.991Z,10.90
2019-03-23T21:28:13.689Z,11.00
2019-03-23T21:30:42.934Z,11.00
2019-03-23T21:33:11.616Z,11.00
2019-03-23T21:35:40.243Z,11.00
2019-03-23T21:38:08.842Z,11.00
2019-03-23T21:40:37.393Z,11.00
2019-03-23T21:43:05.996Z,10.90
2019-03-23T21:45:34.470Z,10.90
2019-03-23T21:48:02.987Z,10.80
2019-03-23T21:50:31.567Z,10.80
2019-03-23T21:53:00.143Z,10.80
2019-03-23T21:55:28.897Z,10.80
2019-03-23T21:57:57.514Z,10.80
2019-03-23T22:00:31.432Z,10.80
2019-03-23T22:03:00.146Z,10.80
2019-03-23T22:05:28.686Z,10.80
2019-03-23T22:07:57.262Z,10.80
2019-03-23T22:10:25.805Z,10.70
2019-03-23T22:12:54.374Z,10.80
2019-03-23T22:15:22.999Z,10.80
2019-03-23T22:17:51.869Z,10.80
2019-03-23T22:20:20.332Z,10.80
2019-03-23T22:22:49.629Z,10.80
2019-03-23T22:25:18.117Z,10.80
2019-03-23T22:27:46.638Z,10.80
2019-03-23T22:30:15.479Z,10.70
2019-03-23T22:32:44.041Z,10.70
2019-03-23T22:35:12.600Z,10.70
2019-03-23T22:37:41.090Z,10.70
2019-03-23T22:40:11.091Z,10.80
2019-03-23T22:42:39.606Z,10.80
2019-03-23T22:45:09.292Z,10.70
2019-03-23T22:47:37.804Z,10.70
2019-03-23T22:50:10.588Z,10.70
2019-03-23T22:52:39.103Z,10.60
2019-03-23T22:55:08.210Z,10.50
2019-03-23T22:57:36.724Z,10.50
2019-03-23T23:00:11.851Z,10.50
2019-03-23T23:02:40.478Z,10.50
2019-03-23T23:05:09.086Z,10.50
2019-03-23T23:07:37.628Z,10.50
2019-03-23T23:10:10.197Z,10.50
2019-03-23T23:12:38.694Z,10.50
2019-03-23T23:15:07.994Z,10.50
2019-03-23T23:17:36.638Z,10.40
2019-03-23T23:20:09.097Z,10.50
2019-03-23T23:22:37.597Z,10.50
2019-03-23T23:25:08.862Z,10.50
2019-03-23T23:27:37.483Z,10.50
2019-03-23T23:30:08.454Z,10.50
2019-03-23T23:32:37.448Z,10.40
2019-03-23T23:35:08.645Z,10.40
2019-03-23T23:37:37.242Z,10.40
2019-03-23T23:40:07.243Z,10.40
2019-03-23T23:42:36.051Z,10.30
2019-03-23T23:45:15.261Z,10.30
2019-03-23T23:47:45.431Z,10.30
2019-03-23T23:50:14.363Z,10.30
2019-03-23T23:52:42.975Z,10.20
2019-03-23T23:55:11.566Z,10.20
2019-03-23T23:57:40.030Z,10.20
